Time;durP1;ratioP1;P1;durP2;ratioP2;P2;SDS_P1;SDS_P2;PMS_P1;PMS_P2;Temp;Humidity;BMP_temperature;BMP_pressure;BME280_temperature;BME280_humidity;BME280_pressure;Samples;Min_cycle;Max_cycle;Signal;HPM_P1;HPM_P2
2022/07/19 00:00:33;;;;;;;8.55;4.88;;;19.20;99.90;;;;;;4956878;28;20245;-84
2022/07/19 00:02:59;;;;;;;6.75;4.18;;;19.20;99.90;;;;;;4932181;28;20737;-84
2022/07/19 00:05:26;;;;;;;7.68;4.32;;;19.10;99.90;;;;;;4949951;28;20045;-84
2022/07/19 00:07:52;;;;;;;6.40;4.53;;;19.10;99.90;;;;;;4968133;28;20492;-84
2022/07/19 00:10:19;;;;;;;7.85;4.13;;;19.00;99.90;;;;;;4946772;28;20447;-84
2022/07/19 00:12:46;;;;;;;9.82;4.70;;;19.00;99.90;;;;;;4971355;28;20062;-84
2022/07/19 00:15:14;;;;;;;8.98;4.57;;;18.90;99.90;;;;;;4933085;28;20542;-84
2022/07/19 00:17:42;;;;;;;7.05;3.97;;;18.90;99.90;;;;;;4963168;28;20046;-85
2022/07/19 00:20:11;;;;;;;7.20;3.95;;;18.90;99.90;;;;;;4951447;28;20125;-84
2022/07/19 00:22:38;;;;;;;8.50;3.97;;;18.90;99.90;;;;;;4961750;28;20038;-84
2022/07/19 00:25:05;;;;;;;7.85;5.28;;;18.90;99.90;;;;;;4952821;28;21707;-84
2022/07/19 00:27:31;;;;;;;10.05;4.82;;;18.90;99.90;;;;;;4949480;28;20137;-84
2022/07/19 00:29:57;;;;;;;7.88;4.38;;;18.80;99.90;;;;;;4949104;28;20093;-85
2022/07/19 00:32:23;;;;;;;9.32;4.78;;;18.80;99.90;;;;;;4944911;28;20038;-85
2022/07/19 00:34:53;;;;;;;6.50;4.22;;;18.80;99.90;;;;;;4964845;28;20069;-85
2022/07/19 00:37:21;;;;;;;7.45;4.88;;;18.80;99.90;;;;;;4965576;28;20058;-84
2022/07/19 00:39:48;;;;;;;8.23;5.10;;;18.80;99.90;;;;;;4950309;28;20065;-84
2022/07/19 00:42:17;;;;;;;8.23;4.60;;;18.80;99.90;;;;;;4966474;28;20056;-84
2022/07/19 00:44:44;;;;;;;8.63;4.97;;;18.80;99.90;;;;;;4959523;28;20124;-84
2022/07/19 00:47:13;;;;;;;6.63;4.60;;;18.80;99.90;;;;;;4985332;28;20045;-84
2022/07/19 00:49:42;;;;;;;7.28;4.40;;;18.70;99.90;;;;;;4949708;28;20159;-85
2022/07/19 00:52:10;;;;;;;6.93;4.80;;;18.70;99.90;;;;;;4972060;28;20368;-85
2022/07/19 00:54:40;;;;;;;7.80;4.95;;;18.70;99.90;;;;;;4983419;28;20566;-84
2022/07/19 00:57:06;;;;;;;9.55;5.30;;;18.70;99.90;;;;;;4986780;28;20057;-85
2022/07/19 00:59:34;;;;;;;9.00;5.40;;;18.70;99.90;;;;;;4969972;28;20072;-85
2022/07/19 01:02:00;;;;;;;8.35;4.60;;;18.70;99.90;;;;;;5001317;28;20457;-85
2022/07/19 01:04:27;;;;;;;8.52;5.28;;;18.70;99.90;;;;;;4950974;28;20049;-85
2022/07/19 01:06:53;;;;;;;7.68;5.38;;;18.60;99.90;;;;;;4984227;28;20041;-85
2022/07/19 01:09:19;;;;;;;6.43;4.90;;;18.60;99.90;;;;;;5000390;28;20099;-85
2022/07/19 01:11:46;;;;;;;7.60;4.70;;;18.60;99.90;;;;;;4969748;28;20045;-85
2022/07/19 01:14:12;;;;;;;6.35;4.53;;;18.60;99.90;;;;;;4936331;28;20486;-84
2022/07/19 01:16:44;;;;;;;8.13;5.57;;;18.60;99.90;;;;;;4987909;28;20061;-85
2022/07/19 01:19:10;;;;;;;7.22;5.35;;;18.50;99.90;;;;;;4976497;28;20047;-84
2022/07/19 01:21:36;;;;;;;7.15;5.03;;;18.40;99.90;;;;;;4957805;28;20037;-84
2022/07/19 01:24:03;;;;;;;7.90;5.10;;;18.50;99.90;;;;;;4946591;28;20120;-85
2022/07/19 01:26:29;;;;;;;7.68;4.65;;;18.40;99.90;;;;;;4970862;28;20071;-84
2022/07/19 01:28:55;;;;;;;10.10;5.00;;;18.40;99.90;;;;;;4967193;28;20054;-85
2022/07/19 01:31:24;;;;;;;7.93;5.35;;;18.40;99.90;;;;;;4989365;28;20041;-84
2022/07/19 01:33:50;;;;;;;8.05;4.88;;;18.30;99.90;;;;;;4971574;28;20042;-84
2022/07/19 01:36:17;;;;;;;10.07;4.40;;;18.30;99.90;;;;;;4974522;28;20049;-82
2022/07/19 01:38:46;;;;;;;8.27;4.80;;;18.30;99.90;;;;;;4992720;28;20124;-81
2022/07/19 01:41:12;;;;;;;8.70;4.75;;;18.20;99.90;;;;;;4991671;28;20046;-85
2022/07/19 01:43:41;;;;;;;6.93;4.63;;;18.20;99.90;;;;;;5000665;28;20057;-85
2022/07/19 01:46:07;;;;;;;9.23;5.18;;;18.10;99.90;;;;;;4993203;28;20398;-85
2022/07/19 01:48:33;;;;;;;8.05;5.53;;;18.10;99.90;;;;;;4993230;28;20183;-84
2022/07/19 01:50:59;;;;;;;8.45;5.47;;;18.10;99.90;;;;;;4976317;28;20039;-84
2022/07/19 01:53:26;;;;;;;7.82;5.22;;;18.10;99.90;;;;;;4976400;28;20343;-84
2022/07/19 01:55:55;;;;;;;7.45;4.95;;;18.00;99.90;;;;;;4990257;28;20120;-85
2022/07/19 01:58:21;;;;;;;7.32;4.88;;;18.00;99.90;;;;;;5010354;28;20041;-84
2022/07/19 02:00:47;;;;;;;9.18;5.57;;;18.00;99.90;;;;;;5007927;28;20047;-84
2022/07/19 02:03:14;;;;;;;8.00;5.32;;;18.00;99.90;;;;;;4990285;28;20113;-84
2022/07/19 02:05:40;;;;;;;6.55;4.78;;;18.00;99.90;;;;;;4991613;28;20048;-84
2022/07/19 02:08:06;;;;;;;7.90;5.00;;;18.00;99.90;;;;;;4992863;28;20041;-84
2022/07/19 02:10:32;;;;;;;8.32;5.55;;;17.90;99.90;;;;;;4946297;28;20046;-85
2022/07/19 02:12:58;;;;;;;7.18;5.50;;;17.90;99.90;;;;;;5001700;28;20045;-85
2022/07/19 02:15:25;;;;;;;8.32;5.72;;;17.90;99.90;;;;;;4969732;28;20137;-85
2022/07/19 02:17:51;;;;;;;8.65;5.57;;;17.90;99.90;;;;;;4951947;28;20049;-84
2022/07/19 02:20:20;;;;;;;9.95;5.85;;;17.80;99.90;;;;;;4987017;28;20531;-83
2022/07/19 02:22:46;;;;;;;7.65;5.95;;;17.80;99.90;;;;;;4994104;28;20042;-85
2022/07/19 02:25:12;;;;;;;7.32;5.53;;;17.80;99.90;;;;;;4959702;28;20069;-85
2022/07/19 02:27:42;;;;;;;6.53;5.07;;;17.80;99.90;;;;;;4955173;28;20081;-85
2022/07/19 02:30:11;;;;;;;8.75;5.65;;;17.80;99.90;;;;;;4984445;28;20676;-85
2022/07/19 02:32:37;;;;;;;8.20;5.75;;;17.80;99.90;;;;;;4993535;28;20607;-84
2022/07/19 02:35:06;;;;;;;7.63;5.53;;;17.70;99.90;;;;;;4983783;28;20221;-84
2022/07/19 02:37:32;;;;;;;8.23;5.72;;;17.70;99.90;;;;;;4985591;28;20055;-84
2022/07/19 02:39:58;;;;;;;7.18;5.57;;;17.70;99.90;;;;;;4970768;28;20045;-86
2022/07/19 02:42:24;;;;;;;7.45;5.40;;;17.70;99.90;;;;;;5011593;28;20080;-85
2022/07/19 02:44:56;;;;;;;7.57;6.15;;;17.60;99.90;;;;;;4972065;28;20034;-84
2022/07/19 02:47:22;;;;;;;;;;;17.60;99.90;;;;;;4984849;28;20053;-84
2022/07/19 02:49:48;;;;;;;8.32;5.35;;;17.60;99.90;;;;;;4986621;28;19927;-85
2022/07/19 02:52:14;;;;;;;7.35;5.10;;;17.50;99.90;;;;;;4974429;28;20050;-85
2022/07/19 02:54:40;;;;;;;9.20;5.90;;;17.50;99.90;;;;;;4988352;28;20476;-85
2022/07/19 02:57:06;;;;;;;7.82;5.50;;;17.50;99.90;;;;;;4987049;28;20045;-84
2022/07/19 02:59:32;;;;;;;13.00;6.03;;;17.50;99.90;;;;;;4993177;28;20052;-84
2022/07/19 03:01:58;;;;;;;7.88;5.50;;;17.50;99.90;;;;;;4978068;28;20041;-84
2022/07/19 03:04:25;;;;;;;10.13;6.05;;;17.50;99.90;;;;;;4981254;28;20270;-85
2022/07/19 03:06:51;;;;;;;6.63;5.45;;;17.50;99.90;;;;;;4970661;28;20127;-85
2022/07/19 03:09:17;;;;;;;10.93;5.78;;;17.50;99.90;;;;;;4969381;28;20466;-83
2022/07/19 03:11:43;;;;;;;7.05;5.43;;;17.40;99.90;;;;;;4945491;28;20053;-83
2022/07/19 03:14:09;;;;;;;8.60;5.68;;;17.50;99.90;;;;;;4964083;28;20133;-84
2022/07/19 03:16:36;;;;;;;7.65;5.00;;;17.50;99.90;;;;;;4953879;28;20050;-84
2022/07/19 03:19:02;;;;;;;9.45;4.80;;;17.50;99.90;;;;;;4967941;28;20041;-84
2022/07/19 03:21:28;;;;;;;6.00;4.78;;;17.40;99.90;;;;;;4966685;28;20052;-84
2022/07/19 03:23:54;;;;;;;5.90;4.78;;;17.40;99.90;;;;;;4953993;28;20069;-84
2022/07/19 03:26:20;;;;;;;6.68;5.07;;;17.30;99.90;;;;;;4981295;28;20161;-84
2022/07/19 03:28:46;;;;;;;9.93;5.43;;;17.30;99.90;;;;;;4970714;28;20045;-84
2022/07/19 03:31:12;;;;;;;8.65;5.28;;;17.30;99.90;;;;;;4971839;28;20104;-83
2022/07/19 03:33:38;;;;;;;8.18;6.15;;;17.30;99.90;;;;;;4972355;28;20457;-85
2022/07/19 03:36:04;;;;;;;8.02;5.55;;;17.20;99.90;;;;;;4954668;28;20037;-84
2022/07/19 03:38:30;;;;;;;8.55;5.55;;;17.20;99.90;;;;;;4959290;28;20386;-84
2022/07/19 03:40:56;;;;;;;7.10;5.13;;;17.20;99.90;;;;;;4971641;28;20065;-83
2022/07/19 03:43:23;;;;;;;8.15;5.78;;;17.20;99.90;;;;;;5004085;28;20060;-84
2022/07/19 03:45:49;;;;;;;7.22;4.88;;;17.20;99.90;;;;;;4973798;28;20399;-84
2022/07/19 03:48:17;;;;;;;8.00;5.82;;;17.20;99.90;;;;;;4985881;28;20149;-84
2022/07/19 03:50:46;;;;;;;8.45;5.57;;;17.20;99.90;;;;;;4968191;28;20560;-85
2022/07/19 03:53:12;;;;;;;5.88;5.10;;;17.20;99.90;;;;;;4970844;28;20293;-85
2022/07/19 03:55:39;;;;;;;7.93;5.95;;;17.10;99.90;;;;;;4985436;28;20041;-84
2022/07/19 03:58:05;;;;;;;10.65;5.22;;;17.20;99.90;;;;;;4970459;28;20045;-85
2022/07/19 04:00:32;;;;;;;7.25;5.40;;;17.20;99.90;;;;;;4986640;28;20045;-84
2022/07/19 04:02:58;;;;;;;7.70;5.50;;;17.10;99.90;;;;;;4973871;28;20071;-84
2022/07/19 04:05:24;;;;;;;9.93;5.90;;;17.10;99.90;;;;;;4952197;28;20369;-85
2022/07/19 04:07:50;;;;;;;7.93;5.75;;;17.10;99.90;;;;;;5002308;28;20060;-85
2022/07/19 04:10:16;;;;;;;10.00;6.18;;;17.10;99.90;;;;;;4968321;28;20425;-84
2022/07/19 04:12:43;;;;;;;8.98;6.60;;;17.20;99.90;;;;;;4985832;28;20069;-85
2022/07/19 04:15:11;;;;;;;9.68;6.00;;;17.20;99.90;;;;;;4985964;28;20045;-86
2022/07/19 04:17:37;;;;;;;7.95;6.63;;;17.30;99.90;;;;;;4965762;28;20457;-85
2022/07/19 04:20:05;;;;;;;8.38;5.40;;;17.30;99.90;;;;;;4973638;28;20465;-84
2022/07/19 04:22:31;;;;;;;8.65;6.75;;;17.30;99.90;;;;;;4972312;28;20068;-85
2022/07/19 04:24:58;;;;;;;7.47;5.22;;;17.40;99.90;;;;;;4992101;28;20085;-85
2022/07/19 04:27:23;;;;;;;8.05;6.40;;;17.40;99.90;;;;;;4960031;28;20437;-84
2022/07/19 04:29:49;;;;;;;8.10;5.85;;;17.40;99.90;;;;;;4986627;28;20049;-85
2022/07/19 04:32:16;;;;;;;8.25;5.90;;;17.40;99.90;;;;;;4969437;28;20053;-85
2022/07/19 04:34:42;;;;;;;12.00;6.32;;;17.50;99.90;;;;;;4953205;28;20045;-85
2022/07/19 04:37:08;;;;;;;9.93;6.65;;;17.60;99.90;;;;;;4967877;28;20159;-84
2022/07/19 04:39:34;;;;;;;7.78;5.65;;;17.60;99.90;;;;;;4987007;28;20577;-85
2022/07/19 04:42:00;;;;;;;8.30;6.00;;;17.70;99.90;;;;;;4966922;28;20391;-85
2022/07/19 04:44:27;;;;;;;8.55;5.85;;;17.70;99.90;;;;;;4970292;28;20049;-85
2022/07/19 04:46:53;;;;;;;10.00;6.57;;;17.80;99.90;;;;;;4993071;28;20049;-85
2022/07/19 04:49:19;;;;;;;9.93;5.90;;;17.90;99.90;;;;;;4976052;28;20080;-85
2022/07/19 04:51:45;;;;;;;10.30;5.82;;;18.00;99.90;;;;;;4968820;28;20274;-85
2022/07/19 04:54:11;;;;;;;7.90;5.85;;;18.10;99.90;;;;;;4953680;28;20041;-84
2022/07/19 04:56:37;;;;;;;10.48;5.85;;;18.10;99.90;;;;;;4994678;28;20048;-84
2022/07/19 04:59:04;;;;;;;8.95;5.68;;;18.20;99.90;;;;;;4968602;28;20317;-84
2022/07/19 05:01:30;;;;;;;7.93;5.93;;;18.30;99.90;;;;;;4999142;28;20486;-86
2022/07/19 05:03:57;;;;;;;9.13;6.78;;;18.40;99.90;;;;;;4984981;28;20063;-87
2022/07/19 05:06:24;;;;;;;8.40;5.70;;;18.50;99.90;;;;;;4983018;28;20050;-87
2022/07/19 05:08:52;;;;;;;8.32;5.47;;;18.60;99.90;;;;;;4953397;28;20188;-85
2022/07/19 05:11:19;;;;;;;8.35;5.45;;;18.70;99.90;;;;;;4984663;28;20160;-82
2022/07/19 05:13:48;;;;;;;6.28;5.25;;;18.90;99.90;;;;;;4971709;28;20053;-82
2022/07/19 05:16:15;;;;;;;8.10;5.13;;;19.10;99.90;;;;;;4998739;28;20994;-82
2022/07/19 05:18:41;;;;;;;9.45;6.38;;;19.50;99.90;;;;;;4970054;28;20045;-83
2022/07/19 05:21:07;;;;;;;10.60;6.13;;;19.80;99.90;;;;;;4968916;28;20095;-82
2022/07/19 05:23:33;;;;;;;11.07;6.22;;;20.10;99.90;;;;;;4989345;28;20123;-83
2022/07/19 05:25:59;;;;;;;8.77;6.65;;;20.40;99.90;;;;;;4968077;28;20133;-82
2022/07/19 05:28:25;;;;;;;9.52;7.03;;;20.60;99.90;;;;;;4968865;28;20057;-83
2022/07/19 05:30:51;;;;;;;10.93;7.38;;;20.90;99.90;;;;;;4966413;28;20073;-83
2022/07/19 05:33:17;;;;;;;10.25;7.25;;;21.00;99.90;;;;;;4948416;28;20085;-83
2022/07/19 05:35:44;;;;;;;12.73;9.52;;;21.30;99.90;;;;;;4986194;28;20053;-83
2022/07/19 05:38:10;;;;;;;12.30;9.18;;;21.40;99.90;;;;;;4985503;28;20045;-85
2022/07/19 05:40:36;;;;;;;11.80;9.95;;;21.70;99.90;;;;;;4986266;28;20508;-84
2022/07/19 05:43:02;;;;;;;14.23;9.10;;;21.80;99.90;;;;;;4935165;28;20077;-85
2022/07/19 05:45:28;;;;;;;11.70;9.25;;;22.00;99.90;;;;;;4994908;28;20041;-85
2022/07/19 05:47:54;;;;;;;12.90;9.35;;;22.10;99.90;;;;;;4951941;28;20044;-85
2022/07/19 05:50:21;;;;;;;14.15;9.27;;;22.30;99.90;;;;;;4975342;28;20092;-84
2022/07/19 05:52:47;;;;;;;12.32;8.85;;;22.40;99.90;;;;;;4972409;28;20056;-85
2022/07/19 05:55:13;;;;;;;12.05;8.75;;;22.60;99.90;;;;;;5001045;28;20567;-84
2022/07/19 05:57:39;;;;;;;12.50;8.35;;;22.60;99.90;;;;;;4987431;28;20045;-85
2022/07/19 06:00:06;;;;;;;11.45;8.85;;;22.70;99.90;;;;;;4983248;28;20521;-85
2022/07/19 06:02:37;;;;;;;13.00;8.75;;;23.00;99.90;;;;;;4977016;28;20083;-82
2022/07/19 06:05:04;;;;;;;10.70;8.60;;;22.90;99.90;;;;;;4956332;28;20042;-87
2022/07/19 06:07:30;;;;;;;12.50;7.55;;;23.10;99.90;;;;;;4938414;28;20568;-87
2022/07/19 06:09:56;;;;;;;10.57;7.38;;;23.20;99.90;;;;;;4969064;28;20049;-85
2022/07/19 06:12:25;;;;;;;12.52;8.15;;;23.30;99.90;;;;;;4992407;28;20829;-88
2022/07/19 06:14:51;;;;;;;11.55;8.57;;;23.60;99.90;;;;;;4955701;28;20406;-87
2022/07/19 06:17:17;;;;;;;11.45;7.25;;;23.70;99.90;;;;;;4946846;28;20588;-88
2022/07/19 06:19:43;;;;;;;9.00;7.68;;;23.90;99.90;;;;;;4968917;28;20052;-87
2022/07/19 06:22:10;;;;;;;10.98;7.88;;;23.80;99.90;;;;;;4964135;28;20057;-87
2022/07/19 06:24:36;;;;;;;11.02;8.43;;;23.90;99.90;;;;;;4986497;28;20046;-85
2022/07/19 06:27:02;;;;;;;11.32;7.32;;;24.00;99.90;;;;;;4984912;28;20120;-85
2022/07/19 06:29:28;;;;;;;11.20;7.68;;;24.10;99.90;;;;;;4966520;28;20051;-83
2022/07/19 06:31:54;;;;;;;9.80;7.15;;;24.20;99.90;;;;;;4986158;28;20045;-82
2022/07/19 06:34:20;;;;;;;9.95;7.53;;;24.30;99.90;;;;;;5002426;28;20103;-83
2022/07/19 06:36:46;;;;;;;13.98;7.72;;;24.50;99.90;;;;;;4955993;28;20053;-87
2022/07/19 06:39:14;;;;;;;11.80;7.40;;;24.60;99.90;;;;;;4974332;28;20034;-84
2022/07/19 06:41:41;;;;;;;13.63;7.78;;;24.60;99.90;;;;;;4986759;28;20045;-83
2022/07/19 06:44:17;;;;;;;11.52;7.10;;;24.80;99.90;;;;;;4987066;28;20077;-84
2022/07/19 06:46:46;;;;;;;10.88;7.78;;;24.80;99.90;;;;;;5005529;28;20541;-85
2022/07/19 06:49:12;;;;;;;11.50;7.05;;;24.90;99.90;;;;;;4994456;28;20056;-85
2022/07/19 06:51:39;;;;;;;10.05;6.65;;;25.10;99.90;;;;;;4982794;28;20106;-86
2022/07/19 06:54:08;;;;;;;10.20;6.63;;;25.10;99.90;;;;;;4982780;28;20045;-86
2022/07/19 06:56:38;;;;;;;9.70;6.60;;;25.20;99.90;;;;;;4989604;28;20057;-87
2022/07/19 06:59:04;;;;;;;7.82;6.20;;;25.40;99.90;;;;;;4990170;28;20044;-86
2022/07/19 07:01:33;;;;;;;10.10;6.60;;;25.60;99.90;;;;;;4993824;28;20046;-85
2022/07/19 07:03:59;;;;;;;8.35;5.85;;;25.70;99.90;;;;;;4995413;28;20045;-85
2022/07/19 07:06:26;;;;;;;9.90;6.25;;;25.90;99.90;;;;;;5008238;28;20049;-82
2022/07/19 07:08:52;;;;;;;11.30;5.93;;;26.00;99.90;;;;;;4999297;28;20041;-82
2022/07/19 07:11:18;;;;;;;8.50;6.40;;;26.20;99.90;;;;;;4998775;28;20073;-82
2022/07/19 07:13:47;;;;;;;7.72;5.68;;;26.50;99.90;;;;;;5014343;28;20045;-84
2022/07/19 07:16:14;;;;;;;9.57;5.05;;;26.70;99.90;;;;;;4973733;28;20051;-84
2022/07/19 07:18:40;;;;;;;8.65;5.03;;;26.70;99.90;;;;;;4971419;28;20107;-84
2022/07/19 07:21:06;;;;;;;9.23;5.20;;;26.90;99.90;;;;;;4956712;28;20501;-85
2022/07/19 07:23:32;;;;;;;7.97;5.28;;;27.20;99.90;;;;;;5017914;28;20080;-83
2022/07/19 07:25:58;;;;;;;9.27;5.22;;;27.20;99.90;;;;;;4942879;28;20124;-84
2022/07/19 07:28:24;;;;;;;7.13;4.80;;;27.50;99.90;;;;;;4979899;28;20115;-83
2022/07/19 07:30:50;;;;;;;9.20;4.95;;;27.70;99.90;;;;;;4985861;28;20041;-84
2022/07/19 07:33:17;;;;;;;11.55;5.70;;;27.80;99.90;;;;;;4977754;28;20049;-85
2022/07/19 07:35:43;;;;;;;8.73;4.85;;;28.00;99.90;;;;;;4959794;28;20498;-82
2022/07/19 07:38:10;;;;;;;10.00;6.15;;;28.10;99.90;;;;;;4975001;28;20094;-84
2022/07/19 07:40:38;;;;;;;9.45;4.97;;;28.30;99.80;;;;;;4990793;28;20053;-85
2022/07/19 07:43:05;;;;;;;7.57;4.63;;;28.60;99.50;;;;;;4975278;28;20293;-83
2022/07/19 07:45:34;;;;;;;8.35;4.50;;;28.80;98.70;;;;;;4973818;28;20049;-85
2022/07/19 07:48:00;;;;;;;7.78;4.90;;;29.00;98.80;;;;;;4973055;28;20049;-84
2022/07/19 07:50:26;;;;;;;9.57;4.57;;;29.20;98.40;;;;;;4975045;28;20181;-84
2022/07/19 07:52:55;;;;;;;5.90;3.80;;;29.20;97.60;;;;;;4970822;28;20505;-84
2022/07/19 07:55:21;;;;;;;9.48;3.95;;;29.30;96.30;;;;;;4985143;28;20057;-83
2022/07/19 07:57:48;;;;;;;6.90;3.90;;;29.60;97.10;;;;;;4961950;28;20096;-83
2022/07/19 08:00:14;;;;;;;7.70;4.63;;;29.70;96.50;;;;;;4990914;28;20124;-84
2022/07/19 08:02:49;;;;;;;9.80;3.97;;;29.90;97.00;;;;;;4977532;28;20045;-85
2022/07/19 08:05:15;;;;;;;9.77;3.72;;;29.90;96.80;;;;;;5002441;28;20049;-82
2022/07/19 08:07:41;;;;;;;6.82;3.63;;;30.20;97.70;;;;;;4972583;28;20060;-82
2022/07/19 08:10:09;;;;;;;8.90;3.65;;;30.20;96.50;;;;;;4988777;28;20509;-83
2022/07/19 08:12:35;;;;;;;5.72;4.45;;;30.30;95.10;;;;;;4983355;28;20052;-82
2022/07/19 08:15:05;;;;;;;4.90;3.63;;;30.40;94.60;;;;;;4994344;28;20049;-85
2022/07/19 08:17:35;;;;;;;8.23;3.28;;;30.60;93.40;;;;;;4987088;28;20045;-84
2022/07/19 08:20:02;;;;;;;5.35;3.38;;;30.70;92.40;;;;;;4991870;28;20052;-85
2022/07/19 08:22:29;;;;;;;7.45;3.15;;;30.90;92.10;;;;;;5005210;28;20136;-85
2022/07/19 08:24:55;;;;;;;5.40;3.10;;;31.20;91.90;;;;;;4999348;28;20076;-85
2022/07/19 08:27:47;;;;;;;9.90;7.38;;;31.30;90.30;;;;;;4992915;28;20106;-86
2022/07/19 08:30:14;;;;;;;6.20;3.10;;;31.60;90.00;;;;;;4970787;28;20126;-85
2022/07/19 08:32:41;;;;;;;5.95;3.13;;;31.80;88.60;;;;;;4974084;28;20049;-86
2022/07/19 08:35:11;;;;;;;4.95;3.20;;;31.80;90.10;;;;;;4958751;28;20405;-85
2022/07/19 08:37:37;;;;;;;9.75;6.78;;;32.00;90.60;;;;;;4984959;28;20741;-84
2022/07/19 08:40:04;;;;;;;4.72;2.45;;;32.20;90.70;;;;;;5004345;28;20045;-84
2022/07/19 08:42:31;;;;;;;11.43;7.43;;;32.30;90.00;;;;;;4994659;28;20136;-84
2022/07/19 08:45:05;;;;;;;11.27;5.53;;;32.70;86.90;;;;;;4946780;28;20037;-84
2022/07/19 08:47:31;;;;;;;6.97;2.90;;;32.90;83.00;;;;;;4984408;28;20052;-86
2022/07/19 08:50:00;;;;;;;7.30;3.00;;;33.00;81.10;;;;;;4971691;28;20128;-84
2022/07/19 08:52:32;;;;;;;8.82;3.13;;;33.00;75.90;;;;;;4988037;28;20056;-84
2022/07/19 08:54:58;;;;;;;8.63;6.15;;;33.10;79.70;;;;;;5008325;28;20148;-82
2022/07/19 09:00:16;;;;;;;5.97;2.60;;;33.30;76.90;;;;;;5001480;28;20045;-84
2022/07/19 09:02:58;;;;;;;9.93;8.30;;;33.60;74.00;;;;;;4984922;28;20382;-86
2022/07/19 09:05:24;;;;;;;6.60;2.40;;;33.80;73.30;;;;;;4965953;28;20045;-79
2022/07/19 09:08:02;;;;;;;9.27;2.95;;;33.80;69.10;;;;;;4978134;28;20065;-82
2022/07/19 09:10:28;;;;;;;6.10;3.55;;;34.00;63.60;;;;;;4997122;28;20080;-82
2022/07/19 09:13:02;;;;;;;7.85;3.22;;;34.00;61.00;;;;;;4958779;28;20432;-82
2022/07/19 09:15:43;;;;;;;6.28;3.75;;;34.10;61.20;;;;;;4988684;28;20458;-82
2022/07/19 09:18:20;;;;;;;4.68;2.40;;;34.50;60.90;;;;;;4951626;28;20045;-82
2022/07/19 09:20:49;;;;;;;7.22;2.90;;;34.40;57.90;;;;;;4975784;28;20111;-82
2022/07/19 09:23:16;;;;;;;8.32;4.95;;;34.40;59.60;;;;;;4990102;28;20046;-82
2022/07/19 09:25:48;;;;;;;8.23;4.75;;;34.70;56.50;;;;;;5001585;28;20045;-82
2022/07/19 09:28:16;;;;;;;9.60;5.43;;;34.80;58.00;;;;;;4969717;28;20050;-82
2022/07/19 09:30:45;;;;;;;9.25;4.28;;;34.90;55.00;;;;;;4983930;28;20056;-82
2022/07/19 09:33:13;;;;;;;7.43;2.33;;;35.00;53.50;;;;;;4986021;28;20045;-83
2022/07/19 09:35:45;;;;;;;5.80;2.20;;;35.10;53.90;;;;;;4970915;28;20140;-83
2022/07/19 09:38:19;;;;;;;5.63;2.42;;;35.30;53.30;;;;;;5023380;28;20608;-83
2022/07/19 09:40:47;;;;;;;8.05;2.78;;;35.50;55.00;;;;;;4980345;28;20049;-83
2022/07/19 09:43:14;;;;;;;7.25;4.93;;;35.70;54.40;;;;;;4983647;28;20122;-83
2022/07/19 09:45:41;;;;;;;9.02;2.40;;;35.80;55.70;;;;;;4957309;28;20075;-82
2022/07/19 09:48:07;;;;;;;8.30;2.58;;;36.10;56.20;;;;;;4949374;28;20088;-82
2022/07/19 09:50:33;;;;;;;6.20;2.17;;;36.00;51.10;;;;;;4982978;28;20064;-82
2022/07/19 09:53:03;;;;;;;7.50;2.10;;;35.90;49.30;;;;;;4967588;28;20049;-83
2022/07/19 09:55:29;;;;;;;5.43;2.10;;;36.00;49.10;;;;;;4969583;28;20356;-82
2022/07/19 09:57:58;;;;;;;6.45;2.25;;;36.00;49.00;;;;;;4969157;28;20057;-83
2022/07/19 10:00:26;;;;;;;6.22;2.47;;;36.10;46.70;;;;;;4988272;28;20599;-83
2022/07/19 10:02:55;;;;;;;5.63;2.17;;;36.40;47.10;;;;;;4985419;28;20045;-82
2022/07/19 10:05:22;;;;;;;4.50;2.40;;;36.50;46.40;;;;;;4984163;28;20643;-82
2022/07/19 10:07:49;;;;;;;10.02;6.05;;;36.40;45.60;;;;;;4973008;28;20049;-82
2022/07/19 10:10:17;;;;;;;6.55;2.67;;;36.70;45.10;;;;;;4952486;28;20051;-81
2022/07/19 10:12:46;;;;;;;4.75;2.10;;;36.80;45.30;;;;;;4984512;28;20045;-82
2022/07/19 10:15:15;;;;;;;8.07;6.75;;;37.00;46.80;;;;;;4983137;28;20049;-82
2022/07/19 10:17:53;;;;;;;7.90;2.53;;;37.10;44.30;;;;;;4984869;28;20056;-83
2022/07/19 10:20:23;;;;;;;12.30;2.50;;;37.10;42.50;;;;;;4986623;28;20081;-82
2022/07/19 10:22:50;;;;;;;5.55;1.90;;;37.00;43.60;;;;;;4973071;28;20161;-83
2022/07/19 10:25:17;;;;;;;5.15;1.90;;;37.00;43.00;;;;;;4984463;28;20132;-83
2022/07/19 10:27:47;;;;;;;5.90;2.55;;;37.30;43.60;;;;;;4984357;28;20161;-83
2022/07/19 10:30:13;;;;;;;;;;;37.50;44.20;;;;;;4989789;28;20127;-82
2022/07/19 10:32:47;;;;;;;4.22;2.33;;;37.70;43.20;;;;;;4975756;28;19948;-82
2022/07/19 10:35:26;;;;;;;4.82;2.33;;;37.70;42.30;;;;;;4973306;28;20041;-82
2022/07/19 10:38:01;;;;;;;4.45;2.05;;;38.00;43.60;;;;;;4988597;28;20053;-82
2022/07/19 10:40:49;;;;;;;4.47;1.80;;;37.90;41.10;;;;;;5001955;28;20041;-82
2022/07/19 10:43:17;;;;;;;4.95;1.70;;;37.60;40.80;;;;;;5010916;28;20081;-83
2022/07/19 10:46:03;;;;;;;4.35;1.85;;;37.50;40.60;;;;;;4987196;28;20056;-82
2022/07/19 10:48:39;;;;;;;5.32;1.90;;;37.60;41.70;;;;;;4957633;28;20049;-83
2022/07/19 10:51:06;;;;;;;7.25;2.30;;;37.80;41.40;;;;;;5002227;28;20410;-82
2022/07/19 10:53:41;;;;;;;5.38;2.00;;;37.70;41.00;;;;;;4995414;28;20472;-83
2022/07/19 10:56:57;;;;;;;7.45;4.05;;;37.60;39.60;;;;;;4992489;28;20140;-82
2022/07/19 10:59:34;;;;;;;6.53;2.30;;;37.70;40.30;;;;;;4932348;28;20077;-82
2022/07/19 11:02:02;;;;;;;6.43;1.90;;;38.00;40.00;;;;;;4966019;28;20410;-82
2022/07/19 11:04:31;;;;;;;8.38;4.63;;;38.30;39.80;;;;;;4975184;28;20495;-82
2022/07/19 11:07:15;;;;;;;9.15;2.30;;;38.10;40.20;;;;;;4985846;28;20046;-82
2022/07/19 11:09:50;;;;;;;6.70;5.00;;;38.30;39.20;;;;;;4998642;28;20053;-82
2022/07/19 11:12:32;;;;;;;5.85;2.92;;;38.10;38.80;;;;;;4983995;28;20064;-83
2022/07/19 11:15:01;;;;;;;5.82;3.05;;;38.30;39.10;;;;;;4998719;28;20068;-82
2022/07/19 11:17:27;;;;;;;6.50;2.13;;;38.30;39.90;;;;;;4962231;28;20056;-82
2022/07/19 11:20:06;;;;;;;5.53;2.53;;;38.60;40.20;;;;;;4970981;28;20777;-81
2022/07/19 11:22:44;;;;;;;5.47;2.65;;;38.60;38.60;;;;;;5016145;28;20037;-82
2022/07/19 11:25:13;;;;;;;4.93;1.85;;;38.60;39.10;;;;;;5000424;28;20103;-82
2022/07/19 11:27:42;;;;;;;6.87;1.97;;;38.40;38.00;;;;;;4956399;28;20473;-82
2022/07/19 11:30:09;;;;;;;6.70;2.40;;;38.70;38.20;;;;;;4972903;28;20064;-82
2022/07/19 11:32:35;;;;;;;7.72;2.40;;;38.70;37.60;;;;;;4986242;28;20053;-81
2022/07/19 11:35:07;;;;;;;6.25;1.95;;;38.60;37.80;;;;;;4970147;28;20041;-82
2022/07/19 11:37:35;;;;;;;4.35;1.70;;;38.40;37.10;;;;;;4975256;28;20049;-82
2022/07/19 11:40:04;;;;;;;4.43;2.05;;;38.70;37.40;;;;;;4985470;28;20173;-82
2022/07/19 11:42:44;;;;;;;3.72;1.70;;;38.60;37.30;;;;;;5019635;28;20404;-82
2022/07/19 11:45:22;;;;;;;5.65;3.10;;;38.90;38.10;;;;;;4985719;28;20691;-82
2022/07/19 11:47:53;;;;;;;11.45;7.57;;;38.90;36.70;;;;;;4988650;28;20053;-81
2022/07/19 11:50:27;;;;;;;8.55;2.75;;;39.10;39.00;;;;;;4999027;28;20057;-82
2022/07/19 11:52:58;;;;;;;4.30;1.60;;;39.40;37.30;;;;;;5000734;28;20049;-80
2022/07/19 11:55:44;;;;;;;5.25;2.92;;;39.60;38.70;;;;;;4976774;28;20402;-80
2022/07/19 11:58:10;;;;;;;4.20;1.77;;;39.60;36.90;;;;;;4951138;28;20513;-81
2022/07/19 12:00:43;;;;;;;5.53;1.95;;;39.40;36.20;;;;;;4953704;28;20037;-80
2022/07/19 12:03:18;;;;;;;4.38;1.73;;;39.50;35.10;;;;;;4958760;28;20060;-80
2022/07/19 12:06:02;;;;;;;4.20;1.95;;;39.40;35.60;;;;;;5007410;28;20076;-80
2022/07/19 12:08:40;;;;;;;5.57;2.65;;;39.60;34.80;;;;;;5005095;28;20405;-80
2022/07/19 12:11:24;;;;;;;4.68;1.70;;;39.40;34.60;;;;;;4989712;28;20115;-80
2022/07/19 12:13:51;;;;;;;3.67;2.03;;;39.50;34.20;;;;;;4997717;28;20100;-81
2022/07/19 12:16:19;;;;;;;7.28;3.03;;;39.60;35.40;;;;;;4962836;28;20055;-81
2022/07/19 12:18:54;;;;;;;9.75;2.33;;;39.60;36.80;;;;;;4989906;28;20049;-82
2022/07/19 12:21:27;;;;;;;3.80;1.52;;;39.70;34.80;;;;;;4984306;28;20053;-82
2022/07/19 12:24:12;;;;;;;4.10;1.50;;;39.60;35.10;;;;;;4971583;28;20045;-81
2022/07/19 12:26:41;;;;;;;5.90;5.18;;;39.60;34.70;;;;;;4990044;28;20255;-81
2022/07/19 12:29:24;;;;;;;3.63;1.75;;;39.50;34.30;;;;;;5013594;28;20385;-81
2022/07/19 12:32:00;;;;;;;4.97;2.20;;;39.50;34.10;;;;;;4999294;28;20049;-81
2022/07/19 12:34:27;;;;;;;7.93;1.73;;;39.60;33.50;;;;;;4998895;28;20415;-79
2022/07/19 12:36:54;;;;;;;6.28;2.05;;;39.50;33.00;;;;;;5014235;28;20456;-83
2022/07/19 12:39:25;;;;;;;4.00;1.30;;;39.30;33.00;;;;;;5006173;28;20512;-82
2022/07/19 12:41:58;;;;;;;4.90;2.03;;;39.30;33.80;;;;;;5026284;28;20045;-82
2022/07/19 12:44:25;;;;;;;6.88;1.60;;;39.60;31.80;;;;;;4978722;28;20045;-83
2022/07/19 12:46:52;;;;;;;5.05;1.65;;;39.60;32.80;;;;;;4975571;28;20045;-82
2022/07/19 12:49:18;;;;;;;3.83;1.52;;;39.80;33.60;;;;;;4972052;28;20045;-82
2022/07/19 12:51:44;;;;;;;5.00;2.85;;;39.70;32.80;;;;;;4986151;28;20037;-82
2022/07/19 12:54:11;;;;;;;6.35;3.03;;;39.90;32.30;;;;;;4984739;28;20580;-82